sensor_id;sensor_type;location;lat;lon;timestamp;P1;durP1;ratioP1;P2;durP2;ratioP2
9906;SDS011;4992;51.628;6.664;2022-08-21T00:01:18;6.47;;;4.93;;
9906;SDS011;4992;51.628;6.664;2022-08-21T00:03:46;6.25;;;5.10;;
9906;SDS011;4992;51.628;6.664;2022-08-21T00:06:12;8.00;;;5.70;;
9906;SDS011;4992;51.628;6.664;2022-08-21T00:08:37;8.95;;;5.60;;
9906;SDS011;4992;51.628;6.664;2022-08-21T00:11:03;8.95;;;5.32;;
9906;SDS011;4992;51.628;6.664;2022-08-21T00:13:30;7.95;;;5.20;;
9906;SDS011;4992;51.628;6.664;2022-08-21T00:15:55;7.95;;;5.53;;
9906;SDS011;4992;51.628;6.664;2022-08-21T00:18:21;7.95;;;4.90;;
9906;SDS011;4992;51.628;6.664;2022-08-21T00:20:47;7.45;;;5.00;;
9906;SDS011;4992;51.628;6.664;2022-08-21T00:23:13;9.77;;;6.07;;
9906;SDS011;4992;51.628;6.664;2022-08-21T00:25:39;7.75;;;5.78;;
9906;SDS011;4992;51.628;6.664;2022-08-21T00:28:06;9.23;;;7.18;;
9906;SDS011;4992;51.628;6.664;2022-08-21T00:30:33;10.02;;;6.63;;
9906;SDS011;4992;51.628;6.664;2022-08-21T00:32:58;8.10;;;6.35;;
9906;SDS011;4992;51.628;6.664;2022-08-21T00:35:29;8.80;;;7.22;;
9906;SDS011;4992;51.628;6.664;2022-08-21T00:37:58;8.50;;;6.57;;
9906;SDS011;4992;51.628;6.664;2022-08-21T00:40:26;8.73;;;6.47;;
9906;SDS011;4992;51.628;6.664;2022-08-21T00:42:54;8.75;;;7.07;;
9906;SDS011;4992;51.628;6.664;2022-08-21T00:45:21;10.30;;;7.57;;
9906;SDS011;4992;51.628;6.664;2022-08-21T00:47:47;12.10;;;7.72;;
9906;SDS011;4992;51.628;6.664;2022-08-21T00:50:13;10.35;;;7.05;;
9906;SDS011;4992;51.628;6.664;2022-08-21T00:52:38;11.38;;;7.82;;
9906;SDS011;4992;51.628;6.664;2022-08-21T00:55:06;12.93;;;6.63;;
9906;SDS011;4992;51.628;6.664;2022-08-21T00:57:44;12.05;;;6.90;;
9906;SDS011;4992;51.628;6.664;2022-08-21T01:00:15;9.20;;;6.70;;
9906;SDS011;4992;51.628;6.664;2022-08-21T01:02:43;8.38;;;6.35;;
9906;SDS011;4992;51.628;6.664;2022-08-21T01:05:10;9.32;;;6.47;;
9906;SDS011;4992;51.628;6.664;2022-08-21T01:07:37;7.70;;;5.95;;
9906;SDS011;4992;51.628;6.664;2022-08-21T01:10:03;6.97;;;6.28;;
9906;SDS011;4992;51.628;6.664;2022-08-21T01:12:30;7.43;;;6.13;;
9906;SDS011;4992;51.628;6.664;2022-08-21T01:14:57;7.95;;;6.40;;
9906;SDS011;4992;51.628;6.664;2022-08-21T01:17:23;7.05;;;6.05;;
9906;SDS011;4992;51.628;6.664;2022-08-21T01:19:51;8.85;;;6.47;;
9906;SDS011;4992;51.628;6.664;2022-08-21T01:22:16;11.52;;;6.43;;
9906;SDS011;4992;51.628;6.664;2022-08-21T01:24:42;11.77;;;6.90;;
9906;SDS011;4992;51.628;6.664;2022-08-21T01:27:08;7.30;;;5.82;;
9906;SDS011;4992;51.628;6.664;2022-08-21T01:29:35;7.20;;;5.65;;
9906;SDS011;4992;51.628;6.664;2022-08-21T01:32:16;9.10;;;6.53;;
9906;SDS011;4992;51.628;6.664;2022-08-21T01:34:44;8.30;;;6.10;;
9906;SDS011;4992;51.628;6.664;2022-08-21T01:37:11;17.17;;;6.75;;
9906;SDS011;4992;51.628;6.664;2022-08-21T01:39:38;9.98;;;6.93;;
9906;SDS011;4992;51.628;6.664;2022-08-21T01:42:04;8.85;;;6.03;;
9906;SDS011;4992;51.628;6.664;2022-08-21T01:44:31;11.90;;;6.35;;
9906;SDS011;4992;51.628;6.664;2022-08-21T01:46:58;6.55;;;5.40;;
9906;SDS011;4992;51.628;6.664;2022-08-21T01:49:25;9.35;;;5.90;;
9906;SDS011;4992;51.628;6.664;2022-08-21T01:51:50;10.23;;;6.07;;
9906;SDS011;4992;51.628;6.664;2022-08-21T01:54:16;7.95;;;6.70;;
9906;SDS011;4992;51.628;6.664;2022-08-21T01:56:45;9.85;;;6.20;;
9906;SDS011;4992;51.628;6.664;2022-08-21T01:59:12;9.38;;;6.47;;
9906;SDS011;4992;51.628;6.664;2022-08-21T02:01:38;9.18;;;6.05;;
9906;SDS011;4992;51.628;6.664;2022-08-21T02:04:07;7.50;;;5.90;;
9906;SDS011;4992;51.628;6.664;2022-08-21T02:06:34;8.88;;;6.80;;
9906;SDS011;4992;51.628;6.664;2022-08-21T02:09:00;8.60;;;6.03;;
9906;SDS011;4992;51.628;6.664;2022-08-21T02:11:31;8.77;;;6.47;;
9906;SDS011;4992;51.628;6.664;2022-08-21T02:13:57;9.82;;;6.32;;
9906;SDS011;4992;51.628;6.664;2022-08-21T02:16:22;8.02;;;6.65;;
9906;SDS011;4992;51.628;6.664;2022-08-21T02:18:48;11.15;;;6.78;;
9906;SDS011;4992;51.628;6.664;2022-08-21T02:21:13;10.05;;;6.97;;
9906;SDS011;4992;51.628;6.664;2022-08-21T02:23:39;10.05;;;7.50;;
9906;SDS011;4992;51.628;6.664;2022-08-21T02:26:05;12.27;;;7.32;;
9906;SDS011;4992;51.628;6.664;2022-08-21T02:28:33;10.73;;;7.07;;
9906;SDS011;4992;51.628;6.664;2022-08-21T02:30:59;9.48;;;6.82;;
9906;SDS011;4992;51.628;6.664;2022-08-21T02:33:26;10.68;;;7.43;;
9906;SDS011;4992;51.628;6.664;2022-08-21T02:35:51;7.90;;;7.15;;
9906;SDS011;4992;51.628;6.664;2022-08-21T02:38:20;10.52;;;6.60;;
9906;SDS011;4992;51.628;6.664;2022-08-21T02:40:48;9.55;;;7.07;;
9906;SDS011;4992;51.628;6.664;2022-08-21T02:43:15;7.93;;;6.80;;
9906;SDS011;4992;51.628;6.664;2022-08-21T02:45:41;9.07;;;6.47;;
9906;SDS011;4992;51.628;6.664;2022-08-21T02:48:10;9.68;;;6.43;;
9906;SDS011;4992;51.628;6.664;2022-08-21T02:50:39;9.38;;;6.60;;
9906;SDS011;4992;51.628;6.664;2022-08-21T02:53:07;7.78;;;6.07;;
9906;SDS011;4992;51.628;6.664;2022-08-21T02:55:34;8.27;;;6.47;;
9906;SDS011;4992;51.628;6.664;2022-08-21T02:58:02;8.70;;;5.93;;
9906;SDS011;4992;51.628;6.664;2022-08-21T03:00:29;9.18;;;6.15;;
9906;SDS011;4992;51.628;6.664;2022-08-21T03:02:57;7.22;;;6.43;;
9906;SDS011;4992;51.628;6.664;2022-08-21T03:05:24;6.93;;;5.53;;
9906;SDS011;4992;51.628;6.664;2022-08-21T03:07:51;7.05;;;5.35;;
9906;SDS011;4992;51.628;6.664;2022-08-21T03:10:17;7.22;;;5.93;;
9906;SDS011;4992;51.628;6.664;2022-08-21T03:12:44;6.22;;;5.63;;
9906;SDS011;4992;51.628;6.664;2022-08-21T03:15:12;7.60;;;5.80;;
9906;SDS011;4992;51.628;6.664;2022-08-21T03:17:39;8.65;;;5.60;;
9906;SDS011;4992;51.628;6.664;2022-08-21T03:20:05;8.40;;;5.82;;
9906;SDS011;4992;51.628;6.664;2022-08-21T03:22:32;7.82;;;5.53;;
9906;SDS011;4992;51.628;6.664;2022-08-21T03:24:58;8.95;;;6.03;;
9906;SDS011;4992;51.628;6.664;2022-08-21T03:27:24;7.93;;;5.80;;
9906;SDS011;4992;51.628;6.664;2022-08-21T03:29:52;7.75;;;5.60;;
9906;SDS011;4992;51.628;6.664;2022-08-21T03:32:18;6.97;;;5.28;;
9906;SDS011;4992;51.628;6.664;2022-08-21T03:34:44;8.50;;;5.00;;
9906;SDS011;4992;51.628;6.664;2022-08-21T03:37:10;7.93;;;5.22;;
9906;SDS011;4992;51.628;6.664;2022-08-21T03:39:37;6.72;;;4.93;;
9906;SDS011;4992;51.628;6.664;2022-08-21T03:42:03;7.18;;;5.80;;
9906;SDS011;4992;51.628;6.664;2022-08-21T03:44:29;6.88;;;5.57;;
9906;SDS011;4992;51.628;6.664;2022-08-21T03:46:55;6.22;;;5.45;;
9906;SDS011;4992;51.628;6.664;2022-08-21T03:49:22;7.50;;;5.15;;
9906;SDS011;4992;51.628;6.664;2022-08-21T03:51:48;6.82;;;5.50;;
9906;SDS011;4992;51.628;6.664;2022-08-21T03:54:13;6.57;;;5.00;;
9906;SDS011;4992;51.628;6.664;2022-08-21T03:56:39;7.07;;;5.78;;
9906;SDS011;4992;51.628;6.664;2022-08-21T03:59:05;5.88;;;5.15;;
9906;SDS011;4992;51.628;6.664;2022-08-21T04:01:31;7.30;;;6.13;;
9906;SDS011;4992;51.628;6.664;2022-08-21T04:03:57;7.13;;;5.40;;
9906;SDS011;4992;51.628;6.664;2022-08-21T04:06:23;7.05;;;5.75;;
9906;SDS011;4992;51.628;6.664;2022-08-21T04:08:49;9.13;;;6.05;;
9906;SDS011;4992;51.628;6.664;2022-08-21T04:11:15;8.38;;;5.82;;
9906;SDS011;4992;51.628;6.664;2022-08-21T04:13:41;8.98;;;5.93;;
9906;SDS011;4992;51.628;6.664;2022-08-21T04:16:06;9.30;;;6.22;;
9906;SDS011;4992;51.628;6.664;2022-08-21T04:18:33;7.45;;;6.57;;
9906;SDS011;4992;51.628;6.664;2022-08-21T04:20:58;7.72;;;6.85;;
9906;SDS011;4992;51.628;6.664;2022-08-21T04:23:25;7.40;;;6.03;;
9906;SDS011;4992;51.628;6.664;2022-08-21T04:25:52;7.70;;;5.88;;
9906;SDS011;4992;51.628;6.664;2022-08-21T04:28:18;10.40;;;6.07;;
9906;SDS011;4992;51.628;6.664;2022-08-21T04:30:44;10.73;;;6.57;;
9906;SDS011;4992;51.628;6.664;2022-08-21T04:33:10;11.98;;;7.28;;
9906;SDS011;4992;51.628;6.664;2022-08-21T04:35:36;6.70;;;6.07;;
9906;SDS011;4992;51.628;6.664;2022-08-21T04:38:01;8.18;;;6.22;;
9906;SDS011;4992;51.628;6.664;2022-08-21T04:40:27;10.10;;;7.03;;
9906;SDS011;4992;51.628;6.664;2022-08-21T04:42:54;7.28;;;6.57;;
9906;SDS011;4992;51.628;6.664;2022-08-21T04:45:27;7.47;;;6.82;;
9906;SDS011;4992;51.628;6.664;2022-08-21T04:47:55;13.60;;;7.10;;
9906;SDS011;4992;51.628;6.664;2022-08-21T04:50:23;12.10;;;7.75;;
9906;SDS011;4992;51.628;6.664;2022-08-21T04:52:53;9.65;;;7.53;;
9906;SDS011;4992;51.628;6.664;2022-08-21T04:55:19;9.75;;;7.22;;
9906;SDS011;4992;51.628;6.664;2022-08-21T04:57:46;7.45;;;6.72;;
9906;SDS011;4992;51.628;6.664;2022-08-21T05:00:12;9.00;;;7.20;;
9906;SDS011;4992;51.628;6.664;2022-08-21T05:02:39;11.93;;;7.85;;
9906;SDS011;4992;51.628;6.664;2022-08-21T05:05:06;10.48;;;8.10;;
9906;SDS011;4992;51.628;6.664;2022-08-21T05:07:32;8.75;;;7.43;;
9906;SDS011;4992;51.628;6.664;2022-08-21T05:09:59;10.43;;;7.05;;
9906;SDS011;4992;51.628;6.664;2022-08-21T05:12:25;6.38;;;5.35;;
9906;SDS011;4992;51.628;6.664;2022-08-21T05:14:51;8.88;;;5.68;;
9906;SDS011;4992;51.628;6.664;2022-08-21T05:17:17;7.65;;;5.60;;
9906;SDS011;4992;51.628;6.664;2022-08-21T05:19:42;7.68;;;5.70;;
9906;SDS011;4992;51.628;6.664;2022-08-21T05:22:08;8.13;;;6.05;;
9906;SDS011;4992;51.628;6.664;2022-08-21T05:24:34;7.22;;;5.55;;
9906;SDS011;4992;51.628;6.664;2022-08-21T05:26:59;7.53;;;6.18;;
9906;SDS011;4992;51.628;6.664;2022-08-21T05:29:25;8.68;;;6.10;;
9906;SDS011;4992;51.628;6.664;2022-08-21T05:31:51;9.23;;;6.13;;
9906;SDS011;4992;51.628;6.664;2022-08-21T05:34:19;7.72;;;6.28;;
9906;SDS011;4992;51.628;6.664;2022-08-21T05:36:47;7.82;;;6.90;;
9906;SDS011;4992;51.628;6.664;2022-08-21T05:39:12;8.40;;;6.75;;
9906;SDS011;4992;51.628;6.664;2022-08-21T05:41:39;9.65;;;6.35;;
9906;SDS011;4992;51.628;6.664;2022-08-21T05:44:04;8.80;;;6.80;;
9906;SDS011;4992;51.628;6.664;2022-08-21T05:46:30;8.70;;;6.95;;
9906;SDS011;4992;51.628;6.664;2022-08-21T05:48:55;8.88;;;6.57;;
9906;SDS011;4992;51.628;6.664;2022-08-21T05:51:21;10.65;;;8.48;;
9906;SDS011;4992;51.628;6.664;2022-08-21T05:53:47;10.57;;;7.82;;
9906;SDS011;4992;51.628;6.664;2022-08-21T05:56:12;9.95;;;8.95;;
9906;SDS011;4992;51.628;6.664;2022-08-21T05:58:38;9.93;;;8.93;;
9906;SDS011;4992;51.628;6.664;2022-08-21T06:01:04;13.07;;;9.32;;
9906;SDS011;4992;51.628;6.664;2022-08-21T06:03:32;12.00;;;9.52;;
9906;SDS011;4992;51.628;6.664;2022-08-21T06:06:00;12.70;;;9.55;;
9906;SDS011;4992;51.628;6.664;2022-08-21T06:08:26;9.45;;;8.38;;
9906;SDS011;4992;51.628;6.664;2022-08-21T06:10:53;9.38;;;8.48;;
9906;SDS011;4992;51.628;6.664;2022-08-21T06:13:21;8.27;;;7.45;;
9906;SDS011;4992;51.628;6.664;2022-08-21T06:15:48;9.10;;;8.23;;
9906;SDS011;4992;51.628;6.664;2022-08-21T06:18:14;11.95;;;8.02;;
9906;SDS011;4992;51.628;6.664;2022-08-21T06:20:40;12.52;;;8.48;;
9906;SDS011;4992;51.628;6.664;2022-08-21T06:23:06;10.43;;;7.07;;
9906;SDS011;4992;51.628;6.664;2022-08-21T06:25:31;7.78;;;6.90;;
9906;SDS011;4992;51.628;6.664;2022-08-21T06:28:04;11.25;;;7.15;;
9906;SDS011;4992;51.628;6.664;2022-08-21T06:30:31;9.85;;;6.60;;
9906;SDS011;4992;51.628;6.664;2022-08-21T06:32:57;10.15;;;6.85;;
9906;SDS011;4992;51.628;6.664;2022-08-21T06:35:23;9.23;;;7.10;;
9906;SDS011;4992;51.628;6.664;2022-08-21T06:37:49;7.40;;;6.30;;
9906;SDS011;4992;51.628;6.664;2022-08-21T06:40:15;8.68;;;7.20;;
9906;SDS011;4992;51.628;6.664;2022-08-21T06:42:41;8.95;;;6.15;;
9906;SDS011;4992;51.628;6.664;2022-08-21T06:45:07;9.73;;;6.00;;
9906;SDS011;4992;51.628;6.664;2022-08-21T06:47:33;8.95;;;6.10;;
9906;SDS011;4992;51.628;6.664;2022-08-21T06:49:58;9.27;;;6.03;;
9906;SDS011;4992;51.628;6.664;2022-08-21T06:52:24;8.25;;;5.75;;
9906;SDS011;4992;51.628;6.664;2022-08-21T06:54:50;7.85;;;5.72;;
9906;SDS011;4992;51.628;6.664;2022-08-21T06:57:15;8.38;;;5.10;;
9906;SDS011;4992;51.628;6.664;2022-08-21T06:59:41;8.27;;;5.00;;
9906;SDS011;4992;51.628;6.664;2022-08-21T07:02:07;6.93;;;4.40;;
9906;SDS011;4992;51.628;6.664;2022-08-21T07:04:32;8.45;;;4.95;;
9906;SDS011;4992;51.628;6.664;2022-08-21T07:06:58;11.23;;;4.38;;
9906;SDS011;4992;51.628;6.664;2022-08-21T07:09:24;11.77;;;4.25;;
9906;SDS011;4992;51.628;6.664;2022-08-21T07:11:50;7.60;;;4.30;;
9906;SDS011;4992;51.628;6.664;2022-08-21T07:14:18;6.72;;;4.35;;
9906;SDS011;4992;51.628;6.664;2022-08-21T07:16:43;5.22;;;3.88;;
9906;SDS011;4992;51.628;6.664;2022-08-21T07:19:09;7.75;;;4.05;;
9906;SDS011;4992;51.628;6.664;2022-08-21T07:21:34;6.45;;;3.65;;
9906;SDS011;4992;51.628;6.664;2022-08-21T07:24:00;8.13;;;3.90;;
9906;SDS011;4992;51.628;6.664;2022-08-21T07:26:25;6.28;;;3.65;;
9906;SDS011;4992;51.628;6.664;2022-08-21T07:28:51;9.52;;;3.72;;
9906;SDS011;4992;51.628;6.664;2022-08-21T07:31:18;7.45;;;3.38;;
9906;SDS011;4992;51.628;6.664;2022-08-21T07:33:46;7.40;;;3.20;;
9906;SDS011;4992;51.628;6.664;2022-08-21T07:36:12;6.20;;;3.38;;
9906;SDS011;4992;51.628;6.664;2022-08-21T07:38:38;8.15;;;4.22;;
9906;SDS011;4992;51.628;6.664;2022-08-21T07:41:10;6.82;;;3.40;;
9906;SDS011;4992;51.628;6.664;2022-08-21T07:43:42;8.50;;;3.90;;
9906;SDS011;4992;51.628;6.664;2022-08-21T07:46:09;4.82;;;3.30;;
9906;SDS011;4992;51.628;6.664;2022-08-21T07:48:35;7.40;;;3.22;;
9906;SDS011;4992;51.628;6.664;2022-08-21T07:51:01;7.47;;;3.42;;
9906;SDS011;4992;51.628;6.664;2022-08-21T07:53:30;6.87;;;3.57;;
9906;SDS011;4992;51.628;6.664;2022-08-21T07:55:59;3.65;;;2.90;;
9906;SDS011;4992;51.628;6.664;2022-08-21T07:58:25;6.75;;;2.80;;
9906;SDS011;4992;51.628;6.664;2022-08-21T08:00:51;6.00;;;2.75;;
9906;SDS011;4992;51.628;6.664;2022-08-21T08:03:16;6.47;;;2.53;;
9906;SDS011;4992;51.628;6.664;2022-08-21T08:05:42;6.35;;;2.28;;
9906;SDS011;4992;51.628;6.664;2022-08-21T08:08:08;6.20;;;1.85;;
9906;SDS011;4992;51.628;6.664;2022-08-21T08:10:34;5.15;;;2.30;;
9906;SDS011;4992;51.628;6.664;2022-08-21T08:13:00;4.97;;;1.77;;
9906;SDS011;4992;51.628;6.664;2022-08-21T08:15:26;3.92;;;1.98;;
9906;SDS011;4992;51.628;6.664;2022-08-21T08:17:53;3.25;;;1.20;;
9906;SDS011;4992;51.628;6.664;2022-08-21T08:20:20;2.67;;;1.27;;
9906;SDS011;4992;51.628;6.664;2022-08-21T08:22:47;5.53;;;1.25;;
9906;SDS011;4992;51.628;6.664;2022-08-21T08:25:14;4.30;;;1.55;;
9906;SDS011;4992;51.628;6.664;2022-08-21T08:27:41;2.72;;;1.45;;
9906;SDS011;4992;51.628;6.664;2022-08-21T08:30:07;5.47;;;1.60;;
9906;SDS011;4992;51.628;6.664;2022-08-21T08:32:36;5.63;;;1.58;;
9906;SDS011;4992;51.628;6.664;2022-08-21T08:35:02;4.53;;;1.13;;
9906;SDS011;4992;51.628;6.664;2022-08-21T08:37:28;4.60;;;1.30;;
9906;SDS011;4992;51.628;6.664;2022-08-21T08:39:54;5.25;;;1.58;;
9906;SDS011;4992;51.628;6.664;2022-08-21T08:44:45;2.63;;;1.40;;
9906;SDS011;4992;51.628;6.664;2022-08-21T08:47:12;2.92;;;1.08;;
9906;SDS011;4992;51.628;6.664;2022-08-21T08:49:42;4.97;;;1.20;;
9906;SDS011;4992;51.628;6.664;2022-08-21T08:54:49;3.75;;;1.00;;
9906;SDS011;4992;51.628;6.664;2022-08-21T08:57:24;4.28;;;1.15;;
9906;SDS011;4992;51.628;6.664;2022-08-21T08:59:51;7.32;;;1.40;;
9906;SDS011;4992;51.628;6.664;2022-08-21T09:02:20;2.58;;;0.98;;
9906;SDS011;4992;51.628;6.664;2022-08-21T09:04:48;5.30;;;1.10;;
9906;SDS011;4992;51.628;6.664;2022-08-21T09:15:39;6.05;;;1.40;;
9906;SDS011;4992;51.628;6.664;2022-08-21T09:18:26;8.07;;;1.27;;
9906;SDS011;4992;51.628;6.664;2022-08-21T09:26:49;5.43;;;1.50;;
9906;SDS011;4992;51.628;6.664;2022-08-21T09:29:25;4.22;;;1.52;;
9906;SDS011;4992;51.628;6.664;2022-08-21T09:31:55;4.75;;;1.23;;
9906;SDS011;4992;51.628;6.664;2022-08-21T09:34:25;3.67;;;1.10;;
9906;SDS011;4992;51.628;6.664;2022-08-21T09:36:51;8.13;;;1.60;;
9906;SDS011;4992;51.628;6.664;2022-08-21T09:39:31;6.28;;;1.63;;
9906;SDS011;4992;51.628;6.664;2022-08-21T09:42:03;3.83;;;1.23;;
9906;SDS011;4992;51.628;6.664;2022-08-21T09:44:31;4.13;;;1.48;;
9906;SDS011;4992;51.628;6.664;2022-08-21T09:46:59;4.22;;;1.52;;
9906;SDS011;4992;51.628;6.664;2022-08-21T09:49:32;5.07;;;1.40;;
9906;SDS011;4992;51.628;6.664;2022-08-21T09:51:59;4.53;;;1.30;;
9906;SDS011;4992;51.628;6.664;2022-08-21T09:54:31;3.65;;;1.13;;
9906;SDS011;4992;51.628;6.664;2022-08-21T09:57:00;4.63;;;1.60;;
9906;SDS011;4992;51.628;6.664;2022-08-21T09:59:48;4.88;;;1.15;;
9906;SDS011;4992;51.628;6.664;2022-08-21T10:04:54;4.20;;;1.08;;
9906;SDS011;4992;51.628;6.664;2022-08-21T10:07:25;2.60;;;1.02;;
9906;SDS011;4992;51.628;6.664;2022-08-21T10:10:07;3.35;;;1.27;;
9906;SDS011;4992;51.628;6.664;2022-08-21T10:13:24;3.55;;;0.93;;
9906;SDS011;4992;51.628;6.664;2022-08-21T10:16:08;3.40;;;1.02;;
9906;SDS011;4992;51.628;6.664;2022-08-21T10:18:56;4.10;;;1.20;;
9906;SDS011;4992;51.628;6.664;2022-08-21T10:21:37;3.63;;;1.17;;
9906;SDS011;4992;51.628;6.664;2022-08-21T10:24:37;3.80;;;1.48;;
9906;SDS011;4992;51.628;6.664;2022-08-21T10:29:56;3.97;;;1.30;;
9906;SDS011;4992;51.628;6.664;2022-08-21T10:32:32;2.40;;;1.02;;
9906;SDS011;4992;51.628;6.664;2022-08-21T10:35:17;5.80;;;1.65;;
9906;SDS011;4992;51.628;6.664;2022-08-21T10:43:27;5.35;;;1.45;;
9906;SDS011;4992;51.628;6.664;2022-08-21T10:49:06;4.13;;;1.33;;
9906;SDS011;4992;51.628;6.664;2022-08-21T10:51:44;3.67;;;0.80;;
9906;SDS011;4992;51.628;6.664;2022-08-21T10:54:37;4.35;;;1.50;;
9906;SDS011;4992;51.628;6.664;2022-08-21T10:57:14;2.97;;;0.85;;
9906;SDS011;4992;51.628;6.664;2022-08-21T10:59:49;2.53;;;0.80;;
9906;SDS011;4992;51.628;6.664;2022-08-21T11:02:24;2.70;;;1.00;;
9906;SDS011;4992;51.628;6.664;2022-08-21T11:10:44;2.58;;;1.20;;
9906;SDS011;4992;51.628;6.664;2022-08-21T11:15:58;3.97;;;1.40;;
9906;SDS011;4992;51.628;6.664;2022-08-21T11:18:41;4.35;;;1.35;;
9906;SDS011;4992;51.628;6.664;2022-08-21T11:21:20;4.93;;;1.02;;
9906;SDS011;4992;51.628;6.664;2022-08-21T11:26:41;3.92;;;1.05;;
9906;SDS011;4992;51.628;6.664;2022-08-21T11:29:30;2.85;;;1.08;;
9906;SDS011;4992;51.628;6.664;2022-08-21T11:34:54;5.35;;;1.30;;
9906;SDS011;4992;51.628;6.664;2022-08-21T11:40:25;3.03;;;0.93;;
9906;SDS011;4992;51.628;6.664;2022-08-21T11:43:14;5.60;;;1.27;;
9906;SDS011;4992;51.628;6.664;2022-08-21T11:46:25;2.25;;;0.98;;
9906;SDS011;4992;51.628;6.664;2022-08-21T11:51:59;2.97;;;0.75;;
9906;SDS011;4992;51.628;6.664;2022-08-21T11:54:50;3.03;;;0.82;;
9906;SDS011;4992;51.628;6.664;2022-08-21T11:57:39;2.20;;;0.65;;
9906;SDS011;4992;51.628;6.664;2022-08-21T12:00:31;2.03;;;0.77;;
9906;SDS011;4992;51.628;6.664;2022-08-21T12:03:14;3.05;;;0.73;;
9906;SDS011;4992;51.628;6.664;2022-08-21T12:05:52;1.92;;;0.40;;
9906;SDS011;4992;51.628;6.664;2022-08-21T12:08:30;2.40;;;0.63;;
9906;SDS011;4992;51.628;6.664;2022-08-21T12:13:30;2.53;;;0.95;;
9906;SDS011;4992;51.628;6.664;2022-08-21T12:16:13;2.25;;;0.63;;
9906;SDS011;4992;51.628;6.664;2022-08-21T12:19:01;2.78;;;0.80;;
9906;SDS011;4992;51.628;6.664;2022-08-21T12:21:28;1.52;;;0.70;;
9906;SDS011;4992;51.628;6.664;2022-08-21T12:24:02;1.92;;;0.55;;
9906;SDS011;4992;51.628;6.664;2022-08-21T12:26:48;1.33;;;0.40;;
9906;SDS011;4992;51.628;6.664;2022-08-21T12:29:26;2.75;;;0.98;;
9906;SDS011;4992;51.628;6.664;2022-08-21T12:34:42;2.00;;;0.70;;
9906;SDS011;4992;51.628;6.664;2022-08-21T12:37:15;2.35;;;0.68;;
9906;SDS011;4992;51.628;6.664;2022-08-21T12:39:44;2.10;;;0.82;;
9906;SDS011;4992;51.628;6.664;2022-08-21T12:42:18;1.75;;;0.63;;
9906;SDS011;4992;51.628;6.664;2022-08-21T12:44:51;2.95;;;1.17;;
9906;SDS011;4992;51.628;6.664;2022-08-21T12:47:25;6.15;;;5.03;;
9906;SDS011;4992;51.628;6.664;2022-08-21T12:50:03;7.35;;;3.03;;
9906;SDS011;4992;51.628;6.664;2022-08-21T12:52:35;3.13;;;0.80;;
9906;SDS011;4992;51.628;6.664;2022-08-21T12:55:07;2.83;;;0.50;;
9906;SDS011;4992;51.628;6.664;2022-08-21T12:57:39;4.32;;;0.98;;
9906;SDS011;4992;51.628;6.664;2022-08-21T13:00:07;3.47;;;0.80;;
9906;SDS011;4992;51.628;6.664;2022-08-21T13:02:39;3.17;;;0.90;;
9906;SDS011;4992;51.628;6.664;2022-08-21T13:05:11;1.00;;;0.52;;
9906;SDS011;4992;51.628;6.664;2022-08-21T13:07:43;2.05;;;0.80;;
9906;SDS011;4992;51.628;6.664;2022-08-21T13:10:18;3.30;;;0.85;;
9906;SDS011;4992;51.628;6.664;2022-08-21T13:12:48;1.05;;;0.60;;
9906;SDS011;4992;51.628;6.664;2022-08-21T13:15:14;2.60;;;0.70;;
9906;SDS011;4992;51.628;6.664;2022-08-21T13:17:47;2.10;;;0.70;;
9906;SDS011;4992;51.628;6.664;2022-08-21T13:20:19;2.05;;;0.70;;
9906;SDS011;4992;51.628;6.664;2022-08-21T13:22:45;3.60;;;0.93;;
9906;SDS011;4992;51.628;6.664;2022-08-21T13:25:15;4.60;;;0.90;;
9906;SDS011;4992;51.628;6.664;2022-08-21T13:27:43;1.80;;;0.68;;
9906;SDS011;4992;51.628;6.664;2022-08-21T13:30:16;2.88;;;0.98;;
9906;SDS011;4992;51.628;6.664;2022-08-21T13:32:45;2.60;;;1.50;;
9906;SDS011;4992;51.628;6.664;2022-08-21T13:35:19;6.30;;;2.28;;
9906;SDS011;4992;51.628;6.664;2022-08-21T13:37:47;2.08;;;0.60;;
9906;SDS011;4992;51.628;6.664;2022-08-21T13:40:15;2.35;;;1.00;;
9906;SDS011;4992;51.628;6.664;2022-08-21T13:42:45;2.40;;;0.85;;
9906;SDS011;4992;51.628;6.664;2022-08-21T13:45:14;2.85;;;0.80;;
9906;SDS011;4992;51.628;6.664;2022-08-21T13:47:41;1.65;;;0.60;;
9906;SDS011;4992;51.628;6.664;2022-08-21T13:50:11;1.92;;;0.80;;
9906;SDS011;4992;51.628;6.664;2022-08-21T13:52:44;4.40;;;1.15;;
9906;SDS011;4992;51.628;6.664;2022-08-21T13:55:21;4.32;;;0.80;;
9906;SDS011;4992;51.628;6.664;2022-08-21T13:57:47;3.03;;;0.70;;
9906;SDS011;4992;51.628;6.664;2022-08-21T14:00:27;1.23;;;0.50;;
9906;SDS011;4992;51.628;6.664;2022-08-21T14:02:59;3.42;;;0.82;;
9906;SDS011;4992;51.628;6.664;2022-08-21T14:05:29;2.13;;;0.95;;
9906;SDS011;4992;51.628;6.664;2022-08-21T14:07:59;7.18;;;5.00;;
9906;SDS011;4992;51.628;6.664;2022-08-21T14:10:35;1.83;;;0.80;;
9906;SDS011;4992;51.628;6.664;2022-08-21T14:13:29;2.03;;;0.80;;
9906;SDS011;4992;51.628;6.664;2022-08-21T14:16:02;2.00;;;0.88;;
9906;SDS011;4992;51.628;6.664;2022-08-21T14:18:42;3.05;;;1.05;;
9906;SDS011;4992;51.628;6.664;2022-08-21T14:21:09;2.47;;;0.88;;
9906;SDS011;4992;51.628;6.664;2022-08-21T14:23:36;2.08;;;0.80;;
9906;SDS011;4992;51.628;6.664;2022-08-21T14:26:04;3.88;;;0.70;;
9906;SDS011;4992;51.628;6.664;2022-08-21T14:30:58;4.20;;;0.85;;
9906;SDS011;4992;51.628;6.664;2022-08-21T14:33:45;4.65;;;1.10;;
9906;SDS011;4992;51.628;6.664;2022-08-21T14:36:11;4.00;;;0.90;;
9906;SDS011;4992;51.628;6.664;2022-08-21T14:38:38;2.13;;;0.60;;
9906;SDS011;4992;51.628;6.664;2022-08-21T14:41:14;2.78;;;0.80;;
9906;SDS011;4992;51.628;6.664;2022-08-21T14:43:42;3.83;;;0.80;;
9906;SDS011;4992;51.628;6.664;2022-08-21T14:46:10;4.68;;;1.00;;
9906;SDS011;4992;51.628;6.664;2022-08-21T14:48:37;2.20;;;0.80;;
9906;SDS011;4992;51.628;6.664;2022-08-21T14:51:03;2.03;;;0.50;;
9906;SDS011;4992;51.628;6.664;2022-08-21T14:53:28;1.83;;;0.93;;
9906;SDS011;4992;51.628;6.664;2022-08-21T14:55:54;5.32;;;0.90;;
9906;SDS011;4992;51.628;6.664;2022-08-21T14:58:35;2.92;;;0.60;;
9906;SDS011;4992;51.628;6.664;2022-08-21T15:01:04;1.40;;;0.60;;
9906;SDS011;4992;51.628;6.664;2022-08-21T15:03:31;1.98;;;0.75;;
9906;SDS011;4992;51.628;6.664;2022-08-21T15:05:57;3.15;;;0.82;;
9906;SDS011;4992;51.628;6.664;2022-08-21T15:08:24;2.25;;;0.65;;
9906;SDS011;4992;51.628;6.664;2022-08-21T15:10:50;1.50;;;0.70;;
9906;SDS011;4992;51.628;6.664;2022-08-21T15:13:17;3.28;;;0.90;;
9906;SDS011;4992;51.628;6.664;2022-08-21T15:15:44;1.92;;;0.60;;
9906;SDS011;4992;51.628;6.664;2022-08-21T15:18:10;3.50;;;0.80;;
9906;SDS011;4992;51.628;6.664;2022-08-21T15:20:36;2.13;;;0.60;;
9906;SDS011;4992;51.628;6.664;2022-08-21T15:23:03;1.95;;;0.52;;
9906;SDS011;4992;51.628;6.664;2022-08-21T15:25:30;2.40;;;0.77;;
9906;SDS011;4992;51.628;6.664;2022-08-21T15:27:55;2.30;;;0.90;;
9906;SDS011;4992;51.628;6.664;2022-08-21T15:30:21;1.48;;;0.50;;
9906;SDS011;4992;51.628;6.664;2022-08-21T15:32:47;2.15;;;0.70;;
9906;SDS011;4992;51.628;6.664;2022-08-21T15:35:12;4.25;;;0.90;;
9906;SDS011;4992;51.628;6.664;2022-08-21T15:37:38;2.22;;;0.82;;
9906;SDS011;4992;51.628;6.664;2022-08-21T15:40:04;3.17;;;0.75;;
9906;SDS011;4992;51.628;6.664;2022-08-21T15:42:32;2.55;;;0.82;;
9906;SDS011;4992;51.628;6.664;2022-08-21T15:44:58;1.30;;;0.50;;
9906;SDS011;4992;51.628;6.664;2022-08-21T15:47:25;2.10;;;0.70;;
9906;SDS011;4992;51.628;6.664;2022-08-21T15:49:54;3.33;;;0.63;;
9906;SDS011;4992;51.628;6.664;2022-08-21T15:52:21;3.55;;;0.75;;
9906;SDS011;4992;51.628;6.664;2022-08-21T15:54:47;3.03;;;1.42;;
9906;SDS011;4992;51.628;6.664;2022-08-21T15:57:14;2.33;;;0.90;;
9906;SDS011;4992;51.628;6.664;2022-08-21T15:59:45;2.40;;;0.63;;
9906;SDS011;4992;51.628;6.664;2022-08-21T16:02:21;4.03;;;0.70;;
9906;SDS011;4992;51.628;6.664;2022-08-21T16:04:50;2.58;;;0.63;;
9906;SDS011;4992;51.628;6.664;2022-08-21T16:07:15;2.55;;;0.70;;
9906;SDS011;4992;51.628;6.664;2022-08-21T16:09:41;1.65;;;0.50;;
9906;SDS011;4992;51.628;6.664;2022-08-21T16:12:08;1.63;;;0.70;;
9906;SDS011;4992;51.628;6.664;2022-08-21T16:14:36;1.75;;;0.55;;
9906;SDS011;4992;51.628;6.664;2022-08-21T16:17:06;1.90;;;0.80;;
9906;SDS011;4992;51.628;6.664;2022-08-21T16:19:32;1.95;;;0.93;;
9906;SDS011;4992;51.628;6.664;2022-08-21T16:21:58;1.70;;;0.40;;
9906;SDS011;4992;51.628;6.664;2022-08-21T16:24:24;1.67;;;0.65;;
9906;SDS011;4992;51.628;6.664;2022-08-21T16:26:50;2.95;;;0.90;;
9906;SDS011;4992;51.628;6.664;2022-08-21T16:29:15;1.77;;;0.57;;